Time;durP1;ratioP1;P1;durP2;ratioP2;P2;SDS_P1;SDS_P2;PMS_P1;PMS_P2;Temp;Humidity;BMP_temperature;BMP_pressure;BME280_temperature;BME280_humidity;BME280_pressure;Samples;Min_cycle;Max_cycle;Signal;HPM_P1;HPM_P2
2022/06/06 00:02:05;;;;;;;49.25;25.17;;;;;;;;;;5012312;28;93335;-67
2022/06/06 00:04:33;;;;;;;57.15;26.23;;;;;;;;;;5011873;28;92556;-67
2022/06/06 00:07:00;;;;;;;50.00;26.27;;;;;;;;;;5010988;28;95988;-66
2022/06/06 00:09:27;;;;;;;56.17;28.50;;;;;;;;;;5007364;28;96625;-67
2022/06/06 00:12:01;;;;;;;71.13;33.20;;;;;;;;;;5015118;28;93245;-67
2022/06/06 00:14:27;;;;;;;63.25;32.45;;;;;;;;;;5012229;28;94163;-67
2022/06/06 00:16:53;;;;;;;68.22;32.55;;;;;;;;;;5011317;28;94302;-67
2022/06/06 00:19:20;;;;;;;61.97;30.27;;;;;;;;;;5013413;28;93458;-67
2022/06/06 00:21:47;;;;;;;58.08;27.75;;;;;;;;;;5011804;28;94030;-67
2022/06/06 00:24:14;;;;;;;54.95;28.50;;;;;;;;;;5011388;28;92617;-67
2022/06/06 00:26:40;;;;;;;54.90;27.95;;;;;;;;;;5011510;28;93786;-67
2022/06/06 00:29:07;;;;;;;53.50;28.95;;;;;;;;;;5012214;28;92796;-67
2022/06/06 00:37:05;;;;;;;62.10;29.20;;;;;;;;;;5003223;28;93318;-67
2022/06/06 00:39:31;;;;;;;54.80;26.70;;;;;;;;;;5011010;28;93401;-67
2022/06/06 00:41:58;;;;;;;60.42;28.08;;;;;;;;;;5011264;28;93266;-67
2022/06/06 00:44:28;;;;;;;53.20;28.98;;;;;;;;;;5011053;28;93447;-67
2022/06/06 00:47:00;;;;;;;47.72;24.80;;;;;;;;;;5011577;28;93580;-67
2022/06/06 00:49:28;;;;;;;44.58;23.45;;;;;;;;;;5011706;28;93278;-67
2022/06/06 00:52:04;;;;;;;54.53;25.02;;;;;;;;;;5011215;28;93202;-67
2022/06/06 00:54:30;;;;;;;46.88;24.75;;;;;;;;;;5011379;28;92598;-67
2022/06/06 00:56:59;;;;;;;45.15;24.02;;;;;;;;;;5012862;28;94799;-68
2022/06/06 00:59:29;;;;;;;51.78;26.35;;;;;;;;;;5010984;28;92752;-67
2022/06/06 01:01:56;;;;;;;44.17;24.08;;;;;;;;;;5011547;28;93398;-67
2022/06/06 01:04:24;;;;;;;53.05;26.95;;;;;;;;;;5013258;28;93772;-67
2022/06/06 01:06:50;;;;;;;50.75;27.50;;;;;;;;;;5013741;28;92557;-67
2022/06/06 01:09:17;;;;;;;54.97;27.45;;;;;;;;;;5015465;28;92985;-67
2022/06/06 01:11:45;;;;;;;55.92;26.40;;;;;;;;;;5014385;28;93471;-67
2022/06/06 01:14:14;;;;;;;52.00;26.55;;;;;;;;;;5014358;28;91791;-67
2022/06/06 01:16:49;;;;;;;51.35;26.35;;;;;;;;;;5017970;28;92503;-68
2022/06/06 01:19:34;;;;;;;59.97;27.77;;;;;;;;;;5006426;28;92889;-67
2022/06/06 01:22:12;;;;;;;50.65;26.23;;;;;;;;;;5013102;28;94817;-67
2022/06/06 01:24:48;;;;;;;53.78;27.58;;;;;;;;;;5014172;28;93569;-67
2022/06/06 01:27:33;;;;;;;47.47;26.02;;;;;;;;;;5014351;28;93453;-67
2022/06/06 01:30:03;;;;;;;39.97;24.23;;;;;;;;;;5014712;28;93560;-67
2022/06/06 01:32:34;;;;;;;46.33;25.20;;;;;;;;;;5014368;28;93581;-67
2022/06/06 01:35:01;;;;;;;44.35;24.88;;;;;;;;;;5013564;28;92487;-67
2022/06/06 01:37:32;;;;;;;50.17;24.05;;;;;;;;;;5013974;28;93224;-67
2022/06/06 01:40:00;;;;;;;34.53;20.92;;;;;;;;;;5017358;28;92867;-68
2022/06/06 01:42:27;;;;;;;37.50;19.40;;;;;;;;;;5013803;28;92749;-67
2022/06/06 01:44:57;;;;;;;30.08;17.63;;;;;;;;;;5014553;28;93506;-67
2022/06/06 01:47:26;;;;;;;30.60;18.42;;;;;;;;;;5005156;28;95530;-67
2022/06/06 01:49:55;;;;;;;30.63;19.10;;;;;;;;;;5014199;28;95590;-67
2022/06/06 01:52:22;;;;;;;21.55;15.55;;;;;;;;;;5005584;28;93453;-67
2022/06/06 01:54:51;;;;;;;31.40;18.52;;;;;;;;;;5013512;28;92437;-67
2022/06/06 01:57:18;;;;;;;24.95;17.50;;;;;;;;;;5014180;28;93115;-67
2022/06/06 01:59:44;;;;;;;30.98;16.98;;;;;;;;;;5014335;28;93466;-67
2022/06/06 02:02:11;;;;;;;28.70;17.63;;;;;;;;;;5016604;28;92784;-68
2022/06/06 02:04:37;;;;;;;31.65;15.98;;;;;;;;;;5014203;28;92490;-67
2022/06/06 02:07:04;;;;;;;32.90;18.23;;;;;;;;;;5014114;28;92486;-68
2022/06/06 02:09:32;;;;;;;35.75;20.08;;;;;;;;;;5007780;28;93189;-68
2022/06/06 02:11:59;;;;;;;36.30;21.55;;;;;;;;;;5007867;28;95983;-67
2022/06/06 02:14:26;;;;;;;34.20;20.38;;;;;;;;;;5013660;28;92473;-67
2022/06/06 02:16:52;;;;;;;43.38;25.60;;;;;;;;;;5015869;28;92960;-67
2022/06/06 02:19:19;;;;;;;41.83;26.77;;;;;;;;;;5015099;28;93404;-68
2022/06/06 02:21:45;;;;;;;44.85;25.60;;;;;;;;;;5013271;28;93879;-67
2022/06/06 02:24:11;;;;;;;42.05;25.23;;;;;;;;;;5015940;28;94154;-67
2022/06/06 02:26:38;;;;;;;49.05;26.33;;;;;;;;;;5013473;28;92572;-67
2022/06/06 02:29:05;;;;;;;49.83;26.80;;;;;;;;;;5014464;28;92031;-68
2022/06/06 02:31:37;;;;;;;38.90;23.85;;;;;;;;;;5012744;28;92471;-67
2022/06/06 02:34:04;;;;;;;31.92;21.50;;;;;;;;;;5014772;28;92981;-67
2022/06/06 02:36:31;;;;;;;38.38;25.35;;;;;;;;;;5011602;28;95661;-67
2022/06/06 02:38:57;;;;;;;42.45;23.63;;;;;;;;;;5012929;28;94589;-67
2022/06/06 02:41:25;;;;;;;37.63;23.50;;;;;;;;;;5013204;28;92457;-67
2022/06/06 02:43:52;;;;;;;40.42;23.42;;;;;;;;;;5012967;28;93320;-67
2022/06/06 02:46:19;;;;;;;40.83;22.50;;;;;;;;;;5016657;28;93029;-67
2022/06/06 02:48:45;;;;;;;36.63;23.40;;;;;;;;;;5013378;28;93086;-68
2022/06/06 02:51:12;;;;;;;42.85;23.85;;;;;;;;;;5018958;28;93286;-67
2022/06/06 02:53:38;;;;;;;45.17;25.40;;;;;;;;;;5014348;28;91698;-67
2022/06/06 02:56:05;;;;;;;41.17;23.30;;;;;;;;;;5013252;28;93354;-68
2022/06/06 02:58:31;;;;;;;52.95;26.30;;;;;;;;;;5012061;28;93913;-67
2022/06/06 03:01:04;;;;;;;43.80;24.25;;;;;;;;;;5011796;28;94871;-68
2022/06/06 03:03:32;;;;;;;47.05;23.50;;;;;;;;;;5012002;28;95406;-68
2022/06/06 03:06:04;;;;;;;51.05;25.70;;;;;;;;;;5012727;28;93357;-67
2022/06/06 03:08:51;;;;;;;49.33;26.15;;;;;;;;;;5023679;28;92547;-67
2022/06/06 03:11:33;;;;;;;46.20;23.95;;;;;;;;;;5012943;28;93849;-67
2022/06/06 03:14:00;;;;;;;;;;;;;;;;;;5012997;28;93709;-67
2022/06/06 03:22:58;;;;;;;43.85;24.58;;;;;;;;;;5012993;28;92426;-68
2022/06/06 03:25:36;;;;;;;53.42;24.65;;;;;;;;;;5010030;28;93108;-67
2022/06/06 03:28:11;;;;;;;50.92;25.13;;;;;;;;;;5003665;28;95793;-67
2022/06/06 03:30:53;;;;;;;47.20;25.27;;;;;;;;;;5015594;28;92617;-67
2022/06/06 03:33:19;;;;;;;50.47;26.30;;;;;;;;;;5012087;28;93606;-67
2022/06/06 03:35:59;;;;;;;48.20;26.27;;;;;;;;;;5011803;28;93495;-67
2022/06/06 03:38:25;;;;;;;51.97;25.40;;;;;;;;;;5012636;28;93605;-67
2022/06/06 03:40:54;;;;;;;48.40;25.92;;;;;;;;;;5010543;28;93411;-68
2022/06/06 03:43:41;;;;;;;49.70;26.30;;;;;;;;;;5013296;28;92726;-67
2022/06/06 03:46:15;;;;;;;47.45;22.98;;;;;;;;;;5006487;28;93200;-68
2022/06/06 03:49:00;;;;;;;49.20;24.73;;;;;;;;;;5011554;28;93412;-67
2022/06/06 03:51:29;;;;;;;50.13;23.40;;;;;;;;;;5012279;28;93002;-68
2022/06/06 03:54:14;;;;;;;45.75;23.58;;;;;;;;;;5013009;28;94879;-67
2022/06/06 03:57:01;;;;;;;44.55;23.42;;;;;;;;;;5012104;28;92456;-67
2022/06/06 03:59:29;;;;;;;41.63;22.60;;;;;;;;;;5006494;28;94900;-67
2022/06/06 04:01:57;;;;;;;48.80;24.88;;;;;;;;;;5011801;28;94093;-68
2022/06/06 04:04:24;;;;;;;43.75;22.52;;;;;;;;;;5012380;28;92451;-67
2022/06/06 04:06:51;;;;;;;45.20;24.80;;;;;;;;;;5012103;28;93995;-68
2022/06/06 04:09:18;;;;;;;49.70;24.85;;;;;;;;;;5010448;28;93528;-67
2022/06/06 04:11:56;;;;;;;42.42;24.13;;;;;;;;;;5004750;28;91870;-68
2022/06/06 04:14:28;;;;;;;40.42;23.58;;;;;;;;;;5012156;28;93947;-67
2022/06/06 04:16:55;;;;;;;;;;;;;;;;;;5017258;28;94085;-68
2022/06/06 04:19:40;;;;;;;44.47;23.48;;;;;;;;;;5011919;28;123005;-68
2022/06/06 04:22:06;;;;;;;41.00;22.98;;;;;;;;;;5010443;28;93365;-67
2022/06/06 04:24:45;;;;;;;47.78;25.02;;;;;;;;;;5011924;28;92483;-68
2022/06/06 04:27:26;;;;;;;52.78;23.40;;;;;;;;;;5004667;28;93106;-67
2022/06/06 04:29:58;;;;;;;44.10;23.17;;;;;;;;;;5010596;28;93312;-68
2022/06/06 04:32:38;;;;;;;47.43;23.77;;;;;;;;;;5012349;28;92524;-67
2022/06/06 04:35:11;;;;;;;40.95;23.40;;;;;;;;;;5011120;28;92683;-68
2022/06/06 04:37:48;;;;;;;47.90;24.50;;;;;;;;;;5011472;28;92888;-67
2022/06/06 04:40:22;;;;;;;39.40;23.17;;;;;;;;;;5009608;28;92573;-68
2022/06/06 04:42:48;;;;;;;45.85;23.45;;;;;;;;;;5015219;28;94172;-67
2022/06/06 04:45:24;;;;;;;52.42;25.70;;;;;;;;;;5013102;28;96188;-67
2022/06/06 04:47:50;;;;;;;41.63;24.10;;;;;;;;;;5015056;28;95326;-68
2022/06/06 04:50:19;;;;;;;46.15;25.85;;;;;;;;;;5014982;28;93454;-67
2022/06/06 04:52:51;;;;;;;49.58;26.45;;;;;;;;;;5015309;28;92535;-67
2022/06/06 04:55:18;;;;;;;55.60;27.52;;;;;;;;;;5015703;28;95315;-68
2022/06/06 04:57:48;;;;;;;54.22;27.27;;;;;;;;;;5014101;28;93226;-68
2022/06/06 05:00:15;;;;;;;54.47;28.95;;;;;;;;;;5015052;28;92597;-68
2022/06/06 05:02:41;;;;;;;43.85;25.15;;;;;;;;;;5018227;28;94321;-68
2022/06/06 05:05:09;;;;;;;57.65;27.98;;;;;;;;;;5014589;28;92810;-67
2022/06/06 05:07:36;;;;;;;46.17;23.70;;;;;;;;;;5015318;28;92973;-68
2022/06/06 05:10:20;;;;;;;39.97;21.63;;;;;;;;;;5012808;28;95937;-67
2022/06/06 05:12:50;;;;;;;44.55;21.40;;;;;;;;;;5013908;28;92680;-68
2022/06/06 05:15:16;;;;;;;34.22;18.02;;;;;;;;;;5014881;28;94354;-68
2022/06/06 05:18:21;;;;;;;27.33;15.75;;;;;;;;;;5014606;28;93575;-67
2022/06/06 05:21:13;;;;;;;28.33;15.18;;;;;;;;;;4966887;28;92560;-67
2022/06/06 05:23:54;;;;;;;23.83;14.60;;;;;;;;;;4965135;28;94240;-67
2022/06/06 05:26:29;;;;;;;22.83;14.57;;;;;;;;;;4998017;28;92658;-68
2022/06/06 05:28:56;;;;;;;33.80;15.73;;;;;;;;;;5015470;28;94739;-67
2022/06/06 05:31:23;;;;;;;25.50;17.55;;;;;;;;;;5014486;28;93448;-67
2022/06/06 05:33:56;;;;;;;29.15;19.48;;;;;;;;;;5013252;28;92473;-68
2022/06/06 05:36:35;;;;;;;33.50;19.98;;;;;;;;;;5012158;28;94939;-68
2022/06/06 05:39:13;;;;;;;31.83;21.10;;;;;;;;;;5014776;28;93446;-68
2022/06/06 05:41:46;;;;;;;32.38;20.00;;;;;;;;;;5013730;28;92640;-68
2022/06/06 05:44:28;;;;;;;32.45;19.38;;;;;;;;;;5014127;28;93232;-67
2022/06/06 05:47:06;;;;;;;28.65;17.77;;;;;;;;;;5011769;27;92471;-68
2022/06/06 05:49:35;;;;;;;29.50;18.15;;;;;;;;;;5013850;28;93653;-67
2022/06/06 05:52:20;;;;;;;25.50;16.08;;;;;;;;;;5014059;28;93586;-67
2022/06/06 05:54:53;;;;;;;21.42;13.60;;;;;;;;;;5013765;28;91757;-68
2022/06/06 05:57:28;;;;;;;21.75;13.45;;;;;;;;;;5010383;28;93424;-67
2022/06/06 06:00:06;;;;;;;13.85;11.85;;;;;;;;;;5021679;28;93363;-68
2022/06/06 06:02:58;;;;;;;17.15;11.98;;;;;;;;;;5011061;28;95042;-68
2022/06/06 06:05:50;;;;;;;20.73;12.07;;;;;;;;;;5014447;28;95411;-68
2022/06/06 06:08:34;;;;;;;13.73;10.50;;;;;;;;;;5008017;28;93586;-68
2022/06/06 06:11:19;;;;;;;15.40;9.15;;;;;;;;;;5016570;28;92537;-68
2022/06/06 06:13:52;;;;;;;16.42;8.30;;;;;;;;;;5013913;28;93442;-68
2022/06/06 06:16:19;;;;;;;15.57;7.70;;;;;;;;;;5014958;28;92465;-68
2022/06/06 06:19:18;;;;;;;11.90;6.68;;;;;;;;;;5014601;28;92499;-68
2022/06/06 06:21:46;;;;;;;10.35;5.65;;;;;;;;;;4979431;28;92643;-68
2022/06/06 06:24:19;;;;;;;10.23;6.47;;;;;;;;;;5015133;28;92510;-68
2022/06/06 06:26:46;;;;;;;10.90;5.10;;;;;;;;;;5014675;28;93098;-67
2022/06/06 06:29:17;;;;;;;6.72;4.68;;;;;;;;;;5012231;28;95715;-68
2022/06/06 06:31:52;;;;;;;8.65;4.65;;;;;;;;;;5014823;28;92500;-68
2022/06/06 06:34:21;;;;;;;10.05;4.50;;;;;;;;;;5017895;28;93121;-68
2022/06/06 06:36:57;;;;;;;12.38;4.65;;;;;;;;;;5013154;28;92812;-68
2022/06/06 06:39:27;;;;;;;10.55;4.28;;;;;;;;;;5014468;28;93138;-68
2022/06/06 06:42:02;;;;;;;10.60;4.40;;;;;;;;;;5013964;28;93456;-68
2022/06/06 06:44:37;;;;;;;8.40;4.32;;;;;;;;;;5013292;28;93040;-68
2022/06/06 06:47:09;;;;;;;14.17;4.17;;;;;;;;;;5015076;28;92942;-68
2022/06/06 06:49:36;;;;;;;11.55;4.40;;;;;;;;;;5020425;28;93338;-68
2022/06/06 06:52:21;;;;;;;11.93;4.15;;;;;;;;;;5013828;28;92555;-68
2022/06/06 06:55:01;;;;;;;9.88;4.30;;;;;;;;;;5004750;28;94823;-68
2022/06/06 06:57:30;;;;;;;6.53;4.20;;;;;;;;;;5015721;28;93428;-67
2022/06/06 07:00:11;;;;;;;8.90;4.32;;;;;;;;;;5014258;28;93253;-67
2022/06/06 07:08:43;;;;;;;11.13;4.47;;;;;;;;;;5006510;28;93149;-68
2022/06/06 07:11:10;;;;;;;8.13;3.90;;;;;;;;;;5003934;28;93764;-68
2022/06/06 07:13:44;;;;;;;10.65;3.83;;;;;;;;;;4999228;28;91734;-67
2022/06/06 07:16:22;;;;;;;6.78;3.70;;;;;;;;;;5007475;27;92468;-68
2022/06/06 07:19:07;;;;;;;4.75;3.60;;;;;;;;;;5002404;28;93934;-67
2022/06/06 07:21:35;;;;;;;9.55;3.63;;;;;;;;;;5006518;28;95528;-67
2022/06/06 07:24:03;;;;;;;7.57;3.70;;;;;;;;;;4994076;28;97087;-68
2022/06/06 07:26:30;;;;;;;10.75;3.33;;;;;;;;;;4996537;28;93003;-68
2022/06/06 07:28:56;;;;;;;14.55;3.13;;;;;;;;;;5002907;28;93060;-67
2022/06/06 07:31:33;;;;;;;5.18;2.60;;;;;;;;;;4997702;28;94145;-68
2022/06/06 07:34:08;;;;;;;4.57;2.78;;;;;;;;;;5010771;28;92749;-68
2022/06/06 07:36:53;;;;;;;6.45;3.00;;;;;;;;;;5011143;28;93195;-68
2022/06/06 07:39:26;;;;;;;5.97;2.40;;;;;;;;;;5012585;28;91666;-68
2022/06/06 07:42:05;;;;;;;5.78;2.30;;;;;;;;;;5012524;28;92456;-69
2022/06/06 07:44:37;;;;;;;5.63;2.50;;;;;;;;;;4999176;28;95936;-68
2022/06/06 07:47:22;;;;;;;3.65;2.42;;;;;;;;;;5007573;28;97193;-69
2022/06/06 07:49:59;;;;;;;5.57;2.30;;;;;;;;;;5002828;28;95535;-69
2022/06/06 07:52:34;;;;;;;5.93;2.42;;;;;;;;;;5012920;28;94366;-69
2022/06/06 07:55:19;;;;;;;4.82;1.90;;;;;;;;;;5007411;28;92559;-69
2022/06/06 07:57:45;;;;;;;7.63;2.30;;;;;;;;;;4999523;27;95149;-69
2022/06/06 08:00:13;;;;;;;6.72;2.20;;;;;;;;;;4996173;28;93317;-69
2022/06/06 08:02:47;;;;;;;7.65;2.38;;;;;;;;;;5000563;28;92557;-69
2022/06/06 08:05:20;;;;;;;4.15;1.92;;;;;;;;;;5008061;28;93283;-68
2022/06/06 08:07:52;;;;;;;7.63;2.63;;;;;;;;;;4996126;28;92582;-68
2022/06/06 08:10:25;;;;;;;5.68;2.03;;;;;;;;;;4996227;28;94027;-68
2022/06/06 08:13:24;;;;;;;4.63;2.28;;;;;;;;;;5000517;28;96494;-68
2022/06/06 08:16:09;;;;;;;4.60;2.10;;;;;;;;;;4997878;28;92482;-68
2022/06/06 08:18:59;;;;;;;10.35;1.98;;;;;;;;;;4999565;28;95894;-69
2022/06/06 08:21:34;;;;;;;8.52;1.77;;;;;;;;;;5005765;28;93083;-69
2022/06/06 08:24:28;;;;;;;7.38;2.00;;;;;;;;;;5006738;28;93221;-69
2022/06/06 08:27:15;;;;;;;4.70;1.67;;;;;;;;;;5002634;28;93083;-69
2022/06/06 08:29:49;;;;;;;6.93;1.83;;;;;;;;;;5009825;28;93788;-69
2022/06/06 08:32:16;;;;;;;5.32;1.95;;;;;;;;;;5005359;28;94134;-68
2022/06/06 08:34:43;;;;;;;4.05;1.90;;;;;;;;;;5010655;28;94047;-69
2022/06/06 08:37:19;;;;;;;2.45;1.58;;;;;;;;;;5004046;28;93386;-68
2022/06/06 08:39:45;;;;;;;6.10;1.77;;;;;;;;;;5003011;28;94996;-69
2022/06/06 08:42:31;;;;;;;4.93;1.80;;;;;;;;;;4996724;28;93139;-69
2022/06/06 08:45:09;;;;;;;5.88;2.20;;;;;;;;;;5012986;28;92943;-69
2022/06/06 08:47:54;;;;;;;7.43;1.92;;;;;;;;;;5000855;28;93973;-69
2022/06/06 08:53:30;;;;;;;6.50;2.10;;;;;;;;;;5008548;28;92547;-69
2022/06/06 08:56:15;;;;;;;6.50;1.95;;;;;;;;;;4992809;28;96326;-68
2022/06/06 08:58:52;;;;;;;3.47;1.63;;;;;;;;;;5011455;28;93910;-69
2022/06/06 09:01:41;;;;;;;6.18;1.80;;;;;;;;;;5004956;28;93755;-70
2022/06/06 09:04:26;;;;;;;10.77;2.28;;;;;;;;;;4989106;28;94058;-69
2022/06/06 09:06:52;;;;;;;4.05;1.52;;;;;;;;;;5002739;28;94994;-68
2022/06/06 09:09:22;;;;;;;3.08;1.33;;;;;;;;;;5012648;28;96563;-68
2022/06/06 09:12:07;;;;;;;6.65;1.73;;;;;;;;;;5007436;28;94293;-68
2022/06/06 09:14:49;;;;;;;2.83;1.42;;;;;;;;;;5000374;28;92425;-69
2022/06/06 09:17:19;;;;;;;5.45;2.17;;;;;;;;;;5015362;28;93931;-68
2022/06/06 09:20:04;;;;;;;5.60;1.40;;;;;;;;;;5002613;28;92469;-68
2022/06/06 09:22:33;;;;;;;2.00;1.50;;;;;;;;;;5011606;28;93162;-68
2022/06/06 09:25:21;;;;;;;3.20;1.95;;;;;;;;;;5002255;28;93405;-68
2022/06/06 09:28:08;;;;;;;5.20;1.45;;;;;;;;;;5012061;28;92463;-68
2022/06/06 09:30:47;;;;;;;5.95;1.50;;;;;;;;;;5010053;28;92812;-68
2022/06/06 09:33:22;;;;;;;2.55;1.63;;;;;;;;;;5004893;28;96242;-70
2022/06/06 09:36:11;;;;;;;4.60;1.48;;;;;;;;;;5015540;28;92490;-68
2022/06/06 09:38:40;;;;;;;3.40;1.50;;;;;;;;;;5011526;28;93843;-68
2022/06/06 09:41:33;;;;;;;6.43;1.80;;;;;;;;;;5010277;28;94239;-68
2022/06/06 09:44:08;;;;;;;3.95;1.35;;;;;;;;;;5015492;28;94104;-68
2022/06/06 09:46:34;;;;;;;2.72;1.27;;;;;;;;;;5011141;28;94222;-68
2022/06/06 09:49:19;;;;;;;3.03;1.48;;;;;;;;;;5011453;28;93135;-69
2022/06/06 09:51:57;;;;;;;4.43;1.48;;;;;;;;;;5015821;28;92847;-69
2022/06/06 10:00:45;;;;;;;3.40;1.55;;;;;;;;;;5001020;28;95237;-69
2022/06/06 10:03:23;;;;;;;3.67;1.40;;;;;;;;;;5005142;28;93551;-69
2022/06/06 10:06:10;;;;;;;4.03;1.52;;;;;;;;;;5002526;28;94488;-69
2022/06/06 10:08:39;;;;;;;1.60;1.10;;;;;;;;;;5012994;28;93579;-69
2022/06/06 10:11:15;;;;;;;2.15;1.20;;;;;;;;;;5006182;28;94217;-69
2022/06/06 10:14:02;;;;;;;3.15;1.40;;;;;;;;;;5004201;28;93024;-69
2022/06/06 10:16:34;;;;;;;5.40;1.48;;;;;;;;;;5008617;28;94443;-68
2022/06/06 10:19:19;;;;;;;6.30;1.08;;;;;;;;;;5008350;28;91849;-69
2022/06/06 10:22:05;;;;;;;3.55;1.92;;;;;;;;;;5010957;28;92956;-69
2022/06/06 10:24:34;;;;;;;1.83;1.00;;;;;;;;;;5000566;28;93089;-69
2022/06/06 10:27:18;;;;;;;3.63;1.17;;;;;;;;;;5005322;28;94910;-69
2022/06/06 10:30:11;;;;;;;2.50;1.30;;;;;;;;;;5001348;28;92977;-69
2022/06/06 10:32:38;;;;;;;1.55;1.20;;;;;;;;;;5014357;28;92463;-69
2022/06/06 10:35:10;;;;;;;3.47;1.15;;;;;;;;;;5012345;28;93775;-68
2022/06/06 10:37:42;;;;;;;1.10;0.80;;;;;;;;;;4998260;28;93718;-68
2022/06/06 10:40:20;;;;;;;7.32;0.82;;;;;;;;;;5010451;28;93086;-68
2022/06/06 10:42:58;;;;;;;3.35;1.00;;;;;;;;;;5009964;28;94171;-68
2022/06/06 10:45:30;;;;;;;1.38;0.80;;;;;;;;;;5006565;28;94177;-68
2022/06/06 10:48:15;;;;;;;2.75;1.30;;;;;;;;;;5014663;28;92487;-68
2022/06/06 10:54:05;;;;;;;2.22;1.27;;;;;;;;;;4988608;28;94865;-68
2022/06/06 10:56:37;;;;;;;1.48;1.20;;;;;;;;;;5009679;28;96367;-68
2022/06/06 10:59:22;;;;;;;5.18;1.70;;;;;;;;;;5013930;28;93405;-68
2022/06/06 11:02:15;;;;;;;5.82;1.90;;;;;;;;;;4995439;28;92494;-68
2022/06/06 11:05:00;;;;;;;6.93;2.72;;;;;;;;;;5001618;28;93798;-67
2022/06/06 11:07:48;;;;;;;4.78;2.40;;;;;;;;;;4997973;28;93688;-67
2022/06/06 11:10:33;;;;;;;2.90;2.60;;;;;;;;;;4995471;28;92735;-68
2022/06/06 11:13:02;;;;;;;10.20;2.78;;;;;;;;;;5006878;28;93500;-67
2022/06/06 11:15:34;;;;;;;3.95;2.28;;;;;;;;;;5004808;28;93738;-67
2022/06/06 11:18:01;;;;;;;;;;;;;;;;;;5003344;28;93163;-67
2022/06/06 11:20:43;;;;;;;2.75;2.30;;;;;;;;;;4999511;28;127059;-68
2022/06/06 11:23:34;;;;;;;3.72;2.50;;;;;;;;;;5004810;27;92652;-68
2022/06/06 11:26:19;;;;;;;2.42;1.60;;;;;;;;;;5010689;28;93160;-67
2022/06/06 11:28:52;;;;;;;4.25;2.47;;;;;;;;;;5002714;28;93279;-67
2022/06/06 11:31:18;;;;;;;3.75;1.65;;;;;;;;;;5004215;28;92961;-68
2022/06/06 11:34:02;;;;;;;2.67;1.90;;;;;;;;;;5002791;28;93032;-67
2022/06/06 11:36:45;;;;;;;1.88;1.77;;;;;;;;;;4999352;27;94334;-68
2022/06/06 11:39:30;;;;;;;3.88;1.70;;;;;;;;;;5007623;28;91727;-68
2022/06/06 11:42:00;;;;;;;2.70;1.73;;;;;;;;;;5008599;28;93299;-68
2022/06/06 11:44:45;;;;;;;1.77;1.63;;;;;;;;;;5011304;28;92525;-68
2022/06/06 11:47:32;;;;;;;4.53;2.20;;;;;;;;;;5001701;28;96193;-68
2022/06/06 11:50:17;;;;;;;5.32;1.98;;;;;;;;;;5013225;28;92453;-68
2022/06/06 11:52:43;;;;;;;9.57;2.47;;;;;;;;;;5010553;28;92584;-68
2022/06/06 11:55:28;;;;;;;3.90;2.10;;;;;;;;;;5010443;28;93079;-68
2022/06/06 11:57:57;;;;;;;3.17;2.10;;;;;;;;;;5007025;28;93372;-67
2022/06/06 12:00:42;;;;;;;3.85;1.95;;;;;;;;;;5009229;28;92448;-68
2022/06/06 12:03:26;;;;;;;5.82;2.15;;;;;;;;;;4996846;28;93241;-68
2022/06/06 12:06:12;;;;;;;8.13;2.47;;;;;;;;;;4994270;28;91735;-68
2022/06/06 12:08:52;;;;;;;2.83;2.30;;;;;;;;;;4996492;28;93164;-68
2022/06/06 12:11:23;;;;;;;3.38;2.10;;;;;;;;;;5007338;28;94082;-68
2022/06/06 12:13:58;;;;;;;4.82;2.53;;;;;;;;;;5006787;28;95139;-67
2022/06/06 12:16:30;;;;;;;3.08;2.75;;;;;;;;;;5000015;28;95480;-68
2022/06/06 12:18:59;;;;;;;3.20;2.72;;;;;;;;;;4997456;28;94093;-67
2022/06/06 12:22:01;;;;;;;3.42;2.40;;;;;;;;;;4997310;28;92925;-68
2022/06/06 12:24:28;;;;;;;3.85;2.53;;;;;;;;;;4973510;28;95199;-68
2022/06/06 12:27:00;;;;;;;9.35;2.88;;;;;;;;;;4996060;28;92727;-67
2022/06/06 12:29:26;;;;;;;4.47;3.38;;;;;;;;;;5004738;28;93803;-68
2022/06/06 12:32:09;;;;;;;5.65;2.38;;;;;;;;;;4998450;28;93931;-67
2022/06/06 12:34:54;;;;;;;2.67;2.47;;;;;;;;;;5004083;28;92834;-68
2022/06/06 12:37:25;;;;;;;3.40;2.45;;;;;;;;;;5012626;28;94014;-68
2022/06/06 12:40:15;;;;;;;5.13;2.67;;;;;;;;;;4999507;27;97269;-68
2022/06/06 12:43:03;;;;;;;5.45;3.10;;;;;;;;;;5001239;27;93285;-68
2022/06/06 12:45:35;;;;;;;3.58;3.15;;;;;;;;;;5003695;28;94341;-68
2022/06/06 12:48:07;;;;;;;5.70;3.20;;;;;;;;;;5005383;28;93174;-68
2022/06/06 12:50:42;;;;;;;3.50;2.97;;;;;;;;;;5011586;28;93226;-68
2022/06/06 12:53:17;;;;;;;6.72;3.13;;;;;;;;;;5005737;28;93749;-68
2022/06/06 12:56:23;;;;;;;7.32;3.45;;;;;;;;;;5005529;28;92587;-68
2022/06/06 12:59:06;;;;;;;6.43;3.70;;;;;;;;;;5002932;28;92837;-68
2022/06/06 13:01:42;;;;;;;7.22;3.10;;;;;;;;;;5003850;28;93251;-69
2022/06/06 13:04:27;;;;;;;10.40;3.30;;;;;;;;;;4996927;28;92574;-68
2022/06/06 13:07:15;;;;;;;4.70;3.10;;;;;;;;;;5004503;28;94864;-67
2022/06/06 13:09:54;;;;;;;6.30;3.25;;;;;;;;;;5010959;28;93423;-67
2022/06/06 13:12:40;;;;;;;5.45;3.00;;;;;;;;;;5007685;28;93176;-68
2022/06/06 13:15:23;;;;;;;7.07;3.55;;;;;;;;;;5004997;28;93984;-67
2022/06/06 13:18:02;;;;;;;5.93;3.80;;;;;;;;;;5001600;28;92634;-69
2022/06/06 13:20:34;;;;;;;4.50;3.40;;;;;;;;;;5013050;28;93656;-67
2022/06/06 13:23:00;;;;;;;;;;;;;;;;;;5002377;28;93624;-67
2022/06/06 13:25:46;;;;;;;6.53;3.70;;;;;;;;;;5003207;28;118985;-68
2022/06/06 13:28:20;;;;;;;5.00;4.18;;;;;;;;;;5010679;28;94268;-67
2022/06/06 13:30:46;;;;;;;4.85;3.60;;;;;;;;;;5004426;28;94349;-67
2022/06/06 13:33:47;;;;;;;4.75;3.83;;;;;;;;;;5011701;28;94876;-68
2022/06/06 13:36:32;;;;;;;4.90;4.10;;;;;;;;;;4974473;28;96194;-68
2022/06/06 13:39:18;;;;;;;5.38;4.68;;;;;;;;;;5010862;28;93010;-67
2022/06/06 13:42:04;;;;;;;7.07;5.32;;;;;;;;;;5014709;28;93937;-67
2022/06/06 13:44:49;;;;;;;6.68;5.20;;;;;;;;;;4999206;28;94365;-67
2022/06/06 13:47:34;;;;;;;18.83;5.80;;;;;;;;;;5013512;28;92972;-66
2022/06/06 13:50:12;;;;;;;3.80;3.45;;;;;;;;;;5015141;28;93674;-66
2022/06/06 13:52:41;;;;;;;3.13;2.83;;;;;;;;;;5002059;28;92498;-66
2022/06/06 13:55:26;;;;;;;2.25;2.15;;;;;;;;;;5013493;28;92515;-66
2022/06/06 13:57:58;;;;;;;7.00;3.40;;;;;;;;;;4998282;28;93120;-66
2022/06/06 14:00:29;;;;;;;2.17;1.98;;;;;;;;;;5007866;28;95749;-66
2022/06/06 14:03:10;;;;;;;2.13;1.95;;;;;;;;;;5012767;28;96589;-66
2022/06/06 14:05:52;;;;;;;3.28;1.90;;;;;;;;;;5003630;28;93106;-67
2022/06/06 14:08:22;;;;;;;2.22;1.50;;;;;;;;;;5000814;28;93080;-66
2022/06/06 14:10:51;;;;;;;1.50;1.33;;;;;;;;;;5014591;28;93232;-66
2022/06/06 14:13:33;;;;;;;2.33;1.13;;;;;;;;;;5005675;28;93579;-66
2022/06/06 14:16:16;;;;;;;1.23;1.10;;;;;;;;;;5003741;28;92409;-66
2022/06/06 14:18:43;;;;;;;3.10;1.10;;;;;;;;;;5005362;28;93104;-66
2022/06/06 14:21:20;;;;;;;2.30;1.00;;;;;;;;;;5002726;28;93415;-66
2022/06/06 14:23:47;;;;;;;1.90;1.35;;;;;;;;;;4998760;28;93142;-66
2022/06/06 14:26:20;;;;;;;1.37;1.03;;;;;;;;;;5008992;28;98890;-66
2022/06/06 14:29:00;;;;;;;3.10;1.20;;;;;;;;;;4995029;28;92924;-66
2022/06/06 14:31:50;;;;;;;4.22;1.42;;;;;;;;;;4994707;28;93279;-66
2022/06/06 14:34:36;;;;;;;1.88;1.38;;;;;;;;;;4995441;28;92679;-66
2022/06/06 14:37:04;;;;;;;3.08;1.75;;;;;;;;;;5004230;28;92494;-66
2022/06/06 14:39:31;;;;;;;3.50;1.80;;;;;;;;;;5008964;28;94533;-66
2022/06/06 14:42:01;;;;;;;3.60;1.70;;;;;;;;;;5001779;28;93554;-66
2022/06/06 14:44:29;;;;;;;1.60;1.50;;;;;;;;;;5010397;28;91760;-66
2022/06/06 14:47:05;;;;;;;2.88;1.80;;;;;;;;;;5002440;28;94272;-66
2022/06/06 14:49:33;;;;;;;4.25;1.63;;;;;;;;;;5010250;28;92452;-66
2022/06/06 14:52:08;;;;;;;2.15;1.80;;;;;;;;;;4996678;28;94862;-66
2022/06/06 14:54:35;;;;;;;1.70;1.60;;;;;;;;;;4994116;28;93102;-66
2022/06/06 14:57:03;;;;;;;5.20;2.47;;;;;;;;;;4998857;28;92683;-66
2022/06/06 14:59:35;;;;;;;6.15;2.20;;;;;;;;;;5002453;28;93878;-68
2022/06/06 15:02:10;;;;;;;4.70;2.40;;;;;;;;;;5011760;28;92785;-66
2022/06/06 15:04:36;;;;;;;2.60;2.17;;;;;;;;;;5006633;28;92571;-66
2022/06/06 15:07:03;;;;;;;5.05;2.30;;;;;;;;;;5006891;28;92981;-66
2022/06/06 15:09:32;;;;;;;3.15;2.63;;;;;;;;;;5009269;28;92781;-66
2022/06/06 15:11:59;;;;;;;3.60;2.03;;;;;;;;;;5014237;27;92553;-66
2022/06/06 15:14:27;;;;;;;3.25;2.05;;;;;;;;;;5008016;28;94016;-66
2022/06/06 15:16:55;;;;;;;2.53;2.08;;;;;;;;;;5009741;28;94885;-66
2022/06/06 15:19:33;;;;;;;3.78;2.25;;;;;;;;;;5007677;28;95439;-66
2022/06/06 15:22:01;;;;;;;3.80;2.80;;;;;;;;;;5006714;28;94626;-66
2022/06/06 15:24:33;;;;;;;2.15;2.05;;;;;;;;;;5008787;28;94328;-66
2022/06/06 15:27:22;;;;;;;2.60;2.15;;;;;;;;;;5010429;28;92761;-66
2022/06/06 15:29:54;;;;;;;3.78;2.97;;;;;;;;;;5013731;28;92615;-66
2022/06/06 15:32:27;;;;;;;3.35;2.30;;;;;;;;;;5003704;28;93888;-66
2022/06/06 15:34:56;;;;;;;2.83;2.20;;;;;;;;;;5006969;28;92454;-67
2022/06/06 15:37:41;;;;;;;3.92;3.55;;;;;;;;;;5007334;28;93161;-66
2022/06/06 15:40:07;;;;;;;5.65;2.78;;;;;;;;;;5010798;28;93869;-67
2022/06/06 15:42:43;;;;;;;3.70;2.40;;;;;;;;;;4993125;28;96712;-67
2022/06/06 15:45:09;;;;;;;2.55;2.15;;;;;;;;;;4994074;28;93105;-66
2022/06/06 15:47:43;;;;;;;3.63;2.67;;;;;;;;;;4999059;28;93840;-66
2022/06/06 15:50:09;;;;;;;3.15;2.65;;;;;;;;;;5008138;28;94547;-66